sensor_id;sensor_type;location;lat;lon;timestamp;temperature;humidity
12254;DHT22;6189;52.526;13.390;2023-06-10T00:00:00;23.30;69.40
12254;DHT22;6189;52.526;13.390;2023-06-10T00:02:45;23.30;70.00
12254;DHT22;6189;52.526;13.390;2023-06-10T00:05:30;23.20;69.80
12254;DHT22;6189;52.526;13.390;2023-06-10T00:08:15;23.20;70.00
12254;DHT22;6189;52.526;13.390;2023-06-10T00:11:04;23.20;69.70
12254;DHT22;6189;52.526;13.390;2023-06-10T00:13:50;23.20;69.80
12254;DHT22;6189;52.526;13.390;2023-06-10T00:16:35;23.20;70.10
12254;DHT22;6189;52.526;13.390;2023-06-10T00:19:22;23.10;70.40
12254;DHT22;6189;52.526;13.390;2023-06-10T00:22:09;23.00;70.20
12254;DHT22;6189;52.526;13.390;2023-06-10T00:24:56;23.00;70.50
12254;DHT22;6189;52.526;13.390;2023-06-10T00:27:41;23.00;71.00
12254;DHT22;6189;52.526;13.390;2023-06-10T00:30:28;23.00;70.50
12254;DHT22;6189;52.526;13.390;2023-06-10T00:33:13;23.00;70.70
12254;DHT22;6189;52.526;13.390;2023-06-10T00:35:59;23.00;70.70
12254;DHT22;6189;52.526;13.390;2023-06-10T00:38:44;23.00;70.60
12254;DHT22;6189;52.526;13.390;2023-06-10T00:41:29;23.00;71.00
12254;DHT22;6189;52.526;13.390;2023-06-10T00:44:15;23.00;70.60
12254;DHT22;6189;52.526;13.390;2023-06-10T00:47:02;23.00;70.80
12254;DHT22;6189;52.526;13.390;2023-06-10T00:49:48;22.90;70.80
12254;DHT22;6189;52.526;13.390;2023-06-10T00:52:34;22.90;71.00
12254;DHT22;6189;52.526;13.390;2023-06-10T00:55:20;22.90;71.40
12254;DHT22;6189;52.526;13.390;2023-06-10T00:58:05;22.80;71.50
12254;DHT22;6189;52.526;13.390;2023-06-10T01:00:50;22.80;71.90
12254;DHT22;6189;52.526;13.390;2023-06-10T01:03:39;22.80;71.80
12254;DHT22;6189;52.526;13.390;2023-06-10T01:06:27;22.80;71.90
12254;DHT22;6189;52.526;13.390;2023-06-10T01:09:18;22.70;71.70
12254;DHT22;6189;52.526;13.390;2023-06-10T01:12:05;22.60;72.40
12254;DHT22;6189;52.526;13.390;2023-06-10T01:14:54;22.60;72.20
12254;DHT22;6189;52.526;13.390;2023-06-10T01:17:52;22.60;72.40
12254;DHT22;6189;52.526;13.390;2023-06-10T01:20:40;22.60;72.00
12254;DHT22;6189;52.526;13.390;2023-06-10T01:23:28;22.60;72.20
12254;DHT22;6189;52.526;13.390;2023-06-10T01:26:13;22.60;72.20
12254;DHT22;6189;52.526;13.390;2023-06-10T01:29:00;22.60;72.50
12254;DHT22;6189;52.526;13.390;2023-06-10T01:31:49;22.60;72.00
12254;DHT22;6189;52.526;13.390;2023-06-10T01:34:36;22.60;72.20
12254;DHT22;6189;52.526;13.390;2023-06-10T01:37:23;22.50;72.30
12254;DHT22;6189;52.526;13.390;2023-06-10T01:40:11;22.60;72.30
12254;DHT22;6189;52.526;13.390;2023-06-10T01:42:57;22.60;72.30
12254;DHT22;6189;52.526;13.390;2023-06-10T01:45:42;22.50;72.90
12254;DHT22;6189;52.526;13.390;2023-06-10T01:48:28;22.50;72.90
12254;DHT22;6189;52.526;13.390;2023-06-10T01:51:13;22.50;73.10
12254;DHT22;6189;52.526;13.390;2023-06-10T01:53:59;22.40;73.20
12254;DHT22;6189;52.526;13.390;2023-06-10T01:56:45;22.40;73.30
12254;DHT22;6189;52.526;13.390;2023-06-10T01:59:31;22.30;73.50
12254;DHT22;6189;52.526;13.390;2023-06-10T02:02:16;22.30;73.60
12254;DHT22;6189;52.526;13.390;2023-06-10T02:05:01;22.30;73.70
12254;DHT22;6189;52.526;13.390;2023-06-10T02:07:47;22.40;74.00
12254;DHT22;6189;52.526;13.390;2023-06-10T02:10:32;22.30;73.90
12254;DHT22;6189;52.526;13.390;2023-06-10T02:13:19;22.30;74.00
12254;DHT22;6189;52.526;13.390;2023-06-10T02:16:04;22.30;74.10
12254;DHT22;6189;52.526;13.390;2023-06-10T02:18:51;22.30;74.10
12254;DHT22;6189;52.526;13.390;2023-06-10T02:21:36;22.30;74.10
12254;DHT22;6189;52.526;13.390;2023-06-10T02:24:22;22.30;74.20
12254;DHT22;6189;52.526;13.390;2023-06-10T02:27:07;22.20;74.40
12254;DHT22;6189;52.526;13.390;2023-06-10T02:29:54;22.20;74.50
12254;DHT22;6189;52.526;13.390;2023-06-10T02:32:39;22.20;74.80
12254;DHT22;6189;52.526;13.390;2023-06-10T02:35:25;22.20;74.80
12254;DHT22;6189;52.526;13.390;2023-06-10T02:38:10;22.20;74.80
12254;DHT22;6189;52.526;13.390;2023-06-10T02:40:55;22.20;75.10
12254;DHT22;6189;52.526;13.390;2023-06-10T02:43:40;22.10;75.30
12254;DHT22;6189;52.526;13.390;2023-06-10T02:46:27;22.10;75.20
12254;DHT22;6189;52.526;13.390;2023-06-10T02:49:13;22.10;75.20
12254;DHT22;6189;52.526;13.390;2023-06-10T02:51:58;22.10;75.30
12254;DHT22;6189;52.526;13.390;2023-06-10T02:54:43;22.10;75.70
12254;DHT22;6189;52.526;13.390;2023-06-10T02:57:29;22.00;75.90
12254;DHT22;6189;52.526;13.390;2023-06-10T03:00:15;21.90;75.70
12254;DHT22;6189;52.526;13.390;2023-06-10T03:03:02;21.90;76.20
12254;DHT22;6189;52.526;13.390;2023-06-10T03:05:49;21.90;76.20
12254;DHT22;6189;52.526;13.390;2023-06-10T03:08:34;21.90;76.20
12254;DHT22;6189;52.526;13.390;2023-06-10T03:11:19;21.90;76.20
12254;DHT22;6189;52.526;13.390;2023-06-10T03:14:04;21.90;76.40
12254;DHT22;6189;52.526;13.390;2023-06-10T03:16:49;21.80;76.80
12254;DHT22;6189;52.526;13.390;2023-06-10T03:19:36;21.80;76.50
12254;DHT22;6189;52.526;13.390;2023-06-10T03:22:22;21.80;76.90
12254;DHT22;6189;52.526;13.390;2023-06-10T03:25:08;21.80;77.00
12254;DHT22;6189;52.526;13.390;2023-06-10T03:27:57;21.80;77.30
12254;DHT22;6189;52.526;13.390;2023-06-10T03:30:43;21.70;77.50
12254;DHT22;6189;52.526;13.390;2023-06-10T03:33:28;21.70;77.20
12254;DHT22;6189;52.526;13.390;2023-06-10T03:36:15;21.70;77.20
12254;DHT22;6189;52.526;13.390;2023-06-10T03:39:00;21.70;77.30
12254;DHT22;6189;52.526;13.390;2023-06-10T03:41:47;21.70;77.20
12254;DHT22;6189;52.526;13.390;2023-06-10T03:44:33;21.80;77.40
12254;DHT22;6189;52.526;13.390;2023-06-10T03:47:18;21.70;77.40
12254;DHT22;6189;52.526;13.390;2023-06-10T03:50:04;21.70;77.50
12254;DHT22;6189;52.526;13.390;2023-06-10T03:52:51;21.70;77.40
12254;DHT22;6189;52.526;13.390;2023-06-10T03:55:36;21.70;77.50
12254;DHT22;6189;52.526;13.390;2023-06-10T03:58:21;21.70;77.90
12254;DHT22;6189;52.526;13.390;2023-06-10T04:01:07;21.70;78.00
12254;DHT22;6189;52.526;13.390;2023-06-10T04:03:52;21.60;78.00
12254;DHT22;6189;52.526;13.390;2023-06-10T04:06:38;21.60;78.20
12254;DHT22;6189;52.526;13.390;2023-06-10T04:09:24;21.60;78.00
12254;DHT22;6189;52.526;13.390;2023-06-10T04:12:10;21.60;78.20
12254;DHT22;6189;52.526;13.390;2023-06-10T04:14:55;21.60;78.20
12254;DHT22;6189;52.526;13.390;2023-06-10T04:17:40;21.60;78.10
12254;DHT22;6189;52.526;13.390;2023-06-10T04:20:26;21.70;78.40
12254;DHT22;6189;52.526;13.390;2023-06-10T04:23:12;21.60;78.60
12254;DHT22;6189;52.526;13.390;2023-06-10T04:25:59;21.60;78.40
12254;DHT22;6189;52.526;13.390;2023-06-10T04:28:44;21.60;78.80
12254;DHT22;6189;52.526;13.390;2023-06-10T04:31:29;21.60;78.80
12254;DHT22;6189;52.526;13.390;2023-06-10T04:34:16;21.60;79.40
12254;DHT22;6189;52.526;13.390;2023-06-10T04:37:01;21.60;79.20
12254;DHT22;6189;52.526;13.390;2023-06-10T04:39:46;21.50;79.30
12254;DHT22;6189;52.526;13.390;2023-06-10T04:42:33;21.50;79.30
12254;DHT22;6189;52.526;13.390;2023-06-10T04:45:18;21.50;80.30
12254;DHT22;6189;52.526;13.390;2023-06-10T04:48:04;21.50;80.30
12254;DHT22;6189;52.526;13.390;2023-06-10T04:50:49;21.50;80.00
12254;DHT22;6189;52.526;13.390;2023-06-10T04:53:35;21.50;80.30
12254;DHT22;6189;52.526;13.390;2023-06-10T04:56:20;21.60;80.00
12254;DHT22;6189;52.526;13.390;2023-06-10T04:59:07;21.60;80.20
12254;DHT22;6189;52.526;13.390;2023-06-10T05:01:53;21.60;80.40
12254;DHT22;6189;52.526;13.390;2023-06-10T05:04:38;21.60;80.40
12254;DHT22;6189;52.526;13.390;2023-06-10T05:07:24;21.60;80.40
12254;DHT22;6189;52.526;13.390;2023-06-10T05:10:09;21.50;81.00
12254;DHT22;6189;52.526;13.390;2023-06-10T05:12:55;21.50;81.30
12254;DHT22;6189;52.526;13.390;2023-06-10T05:15:42;21.50;80.70
12254;DHT22;6189;52.526;13.390;2023-06-10T05:18:28;21.60;81.20
12254;DHT22;6189;52.526;13.390;2023-06-10T05:21:13;21.60;80.80
12254;DHT22;6189;52.526;13.390;2023-06-10T05:23:59;21.70;80.60
12254;DHT22;6189;52.526;13.390;2023-06-10T05:26:45;21.60;80.50
12254;DHT22;6189;52.526;13.390;2023-06-10T05:29:33;21.60;81.60
12254;DHT22;6189;52.526;13.390;2023-06-10T05:32:20;21.60;81.80
12254;DHT22;6189;52.526;13.390;2023-06-10T05:35:06;21.60;81.70
12254;DHT22;6189;52.526;13.390;2023-06-10T05:37:51;21.70;81.40
12254;DHT22;6189;52.526;13.390;2023-06-10T05:40:37;21.70;81.40
12254;DHT22;6189;52.526;13.390;2023-06-10T05:43:22;21.70;81.60
12254;DHT22;6189;52.526;13.390;2023-06-10T05:46:07;21.90;81.60
12254;DHT22;6189;52.526;13.390;2023-06-10T05:48:54;21.90;81.50
12254;DHT22;6189;52.526;13.390;2023-06-10T05:51:39;22.00;81.80
12254;DHT22;6189;52.526;13.390;2023-06-10T05:54:25;22.00;82.30
12254;DHT22;6189;52.526;13.390;2023-06-10T05:57:10;22.10;82.00
12254;DHT22;6189;52.526;13.390;2023-06-10T05:59:55;22.00;81.70
12254;DHT22;6189;52.526;13.390;2023-06-10T06:02:41;22.00;83.10
12254;DHT22;6189;52.526;13.390;2023-06-10T06:05:27;22.00;83.10
12254;DHT22;6189;52.526;13.390;2023-06-10T06:08:18;22.00;83.40
12254;DHT22;6189;52.526;13.390;2023-06-10T06:11:04;22.10;83.20
12254;DHT22;6189;52.526;13.390;2023-06-10T06:13:49;22.20;82.60
12254;DHT22;6189;52.526;13.390;2023-06-10T06:16:34;22.20;83.30
12254;DHT22;6189;52.526;13.390;2023-06-10T06:19:19;22.20;83.70
12254;DHT22;6189;52.526;13.390;2023-06-10T06:22:06;22.30;83.40
12254;DHT22;6189;52.526;13.390;2023-06-10T06:24:51;22.40;82.00
12254;DHT22;6189;52.526;13.390;2023-06-10T06:27:36;22.40;82.90
12254;DHT22;6189;52.526;13.390;2023-06-10T06:30:22;22.50;82.30
12254;DHT22;6189;52.526;13.390;2023-06-10T06:33:07;22.40;83.20
12254;DHT22;6189;52.526;13.390;2023-06-10T06:35:52;22.60;82.10
12254;DHT22;6189;52.526;13.390;2023-06-10T06:38:39;22.70;82.00
12254;DHT22;6189;52.526;13.390;2023-06-10T06:41:25;22.70;81.80
12254;DHT22;6189;52.526;13.390;2023-06-10T06:44:11;22.80;81.50
12254;DHT22;6189;52.526;13.390;2023-06-10T06:46:56;22.80;81.20
12254;DHT22;6189;52.526;13.390;2023-06-10T06:49:41;22.90;82.00
12254;DHT22;6189;52.526;13.390;2023-06-10T06:52:26;22.80;81.50
12254;DHT22;6189;52.526;13.390;2023-06-10T06:55:13;22.90;81.90
12254;DHT22;6189;52.526;13.390;2023-06-10T06:57:59;22.90;81.60
12254;DHT22;6189;52.526;13.390;2023-06-10T07:00:47;22.90;82.20
12254;DHT22;6189;52.526;13.390;2023-06-10T07:03:32;22.90;82.20
12254;DHT22;6189;52.526;13.390;2023-06-10T07:06:18;23.00;81.70
12254;DHT22;6189;52.526;13.390;2023-06-10T07:09:03;23.00;81.10
12254;DHT22;6189;52.526;13.390;2023-06-10T07:11:50;23.10;82.10
12254;DHT22;6189;52.526;13.390;2023-06-10T07:14:35;23.10;81.90
12254;DHT22;6189;52.526;13.390;2023-06-10T07:17:20;23.20;82.80
12254;DHT22;6189;52.526;13.390;2023-06-10T07:20:05;23.20;82.50
12254;DHT22;6189;52.526;13.390;2023-06-10T07:22:51;23.30;82.00
12254;DHT22;6189;52.526;13.390;2023-06-10T07:25:36;23.40;81.70
12254;DHT22;6189;52.526;13.390;2023-06-10T07:28:23;23.40;82.40
12254;DHT22;6189;52.526;13.390;2023-06-10T07:31:08;23.50;82.10
12254;DHT22;6189;52.526;13.390;2023-06-10T07:33:56;23.50;82.00
12254;DHT22;6189;52.526;13.390;2023-06-10T07:36:41;23.60;82.30
12254;DHT22;6189;52.526;13.390;2023-06-10T07:39:26;23.60;81.90
12254;DHT22;6189;52.526;13.390;2023-06-10T07:42:11;23.70;81.40
12254;DHT22;6189;52.526;13.390;2023-06-10T07:44:58;23.90;80.40
12254;DHT22;6189;52.526;13.390;2023-06-10T07:47:43;23.90;80.90
12254;DHT22;6189;52.526;13.390;2023-06-10T07:50:29;24.00;80.70
12254;DHT22;6189;52.526;13.390;2023-06-10T07:53:14;24.00;80.20
12254;DHT22;6189;52.526;13.390;2023-06-10T07:55:59;24.10;80.60
12254;DHT22;6189;52.526;13.390;2023-06-10T07:58:45;24.10;80.90
12254;DHT22;6189;52.526;13.390;2023-06-10T08:01:31;24.00;80.40
12254;DHT22;6189;52.526;13.390;2023-06-10T08:04:16;24.10;80.50
12254;DHT22;6189;52.526;13.390;2023-06-10T08:07:02;24.10;80.80
12254;DHT22;6189;52.526;13.390;2023-06-10T08:09:47;24.10;80.20
12254;DHT22;6189;52.526;13.390;2023-06-10T08:12:33;24.10;80.10
12254;DHT22;6189;52.526;13.390;2023-06-10T08:15:18;24.20;80.40
12254;DHT22;6189;52.526;13.390;2023-06-10T08:18:05;24.20;80.20
12254;DHT22;6189;52.526;13.390;2023-06-10T08:20:51;24.40;79.00
12254;DHT22;6189;52.526;13.390;2023-06-10T08:23:36;24.30;79.70
12254;DHT22;6189;52.526;13.390;2023-06-10T08:26:21;24.50;80.00
12254;DHT22;6189;52.526;13.390;2023-06-10T08:29:06;24.70;79.80
12254;DHT22;6189;52.526;13.390;2023-06-10T08:31:51;24.80;78.90
12254;DHT22;6189;52.526;13.390;2023-06-10T08:34:38;24.80;78.70
12254;DHT22;6189;52.526;13.390;2023-06-10T08:37:24;24.90;79.20
12254;DHT22;6189;52.526;13.390;2023-06-10T08:40:10;25.00;78.50
12254;DHT22;6189;52.526;13.390;2023-06-10T08:42:58;25.00;78.60
12254;DHT22;6189;52.526;13.390;2023-06-10T08:45:45;25.10;78.70
12254;DHT22;6189;52.526;13.390;2023-06-10T08:48:31;25.00;78.70
12254;DHT22;6189;52.526;13.390;2023-06-10T08:51:21;25.10;78.70
12254;DHT22;6189;52.526;13.390;2023-06-10T08:54:09;25.20;78.60
12254;DHT22;6189;52.526;13.390;2023-06-10T08:56:57;25.30;78.40
12254;DHT22;6189;52.526;13.390;2023-06-10T08:59:44;25.40;78.40
12254;DHT22;6189;52.526;13.390;2023-06-10T09:02:29;25.40;77.90
12254;DHT22;6189;52.526;13.390;2023-06-10T09:05:16;25.40;77.40
12254;DHT22;6189;52.526;13.390;2023-06-10T09:08:03;25.30;76.80
12254;DHT22;6189;52.526;13.390;2023-06-10T09:10:48;25.30;77.40
12254;DHT22;6189;52.526;13.390;2023-06-10T09:13:34;25.40;77.80
12254;DHT22;6189;52.526;13.390;2023-06-10T09:16:19;25.50;77.50
12254;DHT22;6189;52.526;13.390;2023-06-10T09:19:05;25.60;77.30
12254;DHT22;6189;52.526;13.390;2023-06-10T09:21:52;25.60;77.80
12254;DHT22;6189;52.526;13.390;2023-06-10T09:24:38;25.60;77.90
12254;DHT22;6189;52.526;13.390;2023-06-10T09:27:24;25.60;77.10
12254;DHT22;6189;52.526;13.390;2023-06-10T09:30:09;25.60;77.40
12254;DHT22;6189;52.526;13.390;2023-06-10T09:32:56;25.60;77.00
12254;DHT22;6189;52.526;13.390;2023-06-10T09:35:44;25.60;76.80
12254;DHT22;6189;52.526;13.390;2023-06-10T09:38:30;25.60;76.70
12254;DHT22;6189;52.526;13.390;2023-06-10T09:41:18;25.50;76.40
12254;DHT22;6189;52.526;13.390;2023-06-10T09:44:05;25.50;76.00
12254;DHT22;6189;52.526;13.390;2023-06-10T09:46:54;25.50;76.10
12254;DHT22;6189;52.526;13.390;2023-06-10T09:49:43;25.60;76.60
12254;DHT22;6189;52.526;13.390;2023-06-10T09:52:29;25.50;76.30
12254;DHT22;6189;52.526;13.390;2023-06-10T09:55:14;25.50;77.20
12254;DHT22;6189;52.526;13.390;2023-06-10T09:58:01;25.50;76.80
12254;DHT22;6189;52.526;13.390;2023-06-10T10:00:48;25.50;77.00
12254;DHT22;6189;52.526;13.390;2023-06-10T10:03:44;25.50;76.70
12254;DHT22;6189;52.526;13.390;2023-06-10T10:06:30;25.50;76.70
12254;DHT22;6189;52.526;13.390;2023-06-10T10:09:16;25.50;77.10
12254;DHT22;6189;52.526;13.390;2023-06-10T10:12:02;25.40;76.90
12254;DHT22;6189;52.526;13.390;2023-06-10T10:14:49;25.40;76.10
12254;DHT22;6189;52.526;13.390;2023-06-10T10:17:35;25.40;76.00
12254;DHT22;6189;52.526;13.390;2023-06-10T10:20:24;25.40;76.90
12254;DHT22;6189;52.526;13.390;2023-06-10T10:23:11;25.40;76.10
12254;DHT22;6189;52.526;13.390;2023-06-10T10:25:57;25.40;76.00
12254;DHT22;6189;52.526;13.390;2023-06-10T10:28:47;25.40;76.70
12254;DHT22;6189;52.526;13.390;2023-06-10T10:31:34;25.40;76.70
12254;DHT22;6189;52.526;13.390;2023-06-10T10:34:21;25.40;76.80
12254;DHT22;6189;52.526;13.390;2023-06-10T10:37:09;25.40;77.50
12254;DHT22;6189;52.526;13.390;2023-06-10T10:39:54;25.40;74.70
12254;DHT22;6189;52.526;13.390;2023-06-10T10:42:40;25.40;73.30
12254;DHT22;6189;52.526;13.390;2023-06-10T10:45:27;25.40;72.40
12254;DHT22;6189;52.526;13.390;2023-06-10T10:48:14;25.40;73.60
12254;DHT22;6189;52.526;13.390;2023-06-10T10:50:59;25.40;75.20
12254;DHT22;6189;52.526;13.390;2023-06-10T10:53:45;25.40;76.70
12254;DHT22;6189;52.526;13.390;2023-06-10T10:59:54;25.40;77.20
12254;DHT22;6189;52.526;13.390;2023-06-10T11:02:40;25.40;76.70
12254;DHT22;6189;52.526;13.390;2023-06-10T11:05:32;25.40;77.10
12254;DHT22;6189;52.526;13.390;2023-06-10T11:11:23;25.60;76.80
12254;DHT22;6189;52.526;13.390;2023-06-10T11:14:09;25.60;75.10
12254;DHT22;6189;52.526;13.390;2023-06-10T11:16:56;25.70;76.00
12254;DHT22;6189;52.526;13.390;2023-06-10T11:19:43;25.60;76.90
12254;DHT22;6189;52.526;13.390;2023-06-10T11:22:31;25.60;76.40
12254;DHT22;6189;52.526;13.390;2023-06-10T11:25:17;25.70;76.60
12254;DHT22;6189;52.526;13.390;2023-06-10T11:28:22;25.70;76.30
12254;DHT22;6189;52.526;13.390;2023-06-10T11:31:18;25.80;75.60
12254;DHT22;6189;52.526;13.390;2023-06-10T11:34:04;25.80;75.40
12254;DHT22;6189;52.526;13.390;2023-06-10T11:36:50;25.90;73.30
12254;DHT22;6189;52.526;13.390;2023-06-10T11:39:37;26.00;74.60
12254;DHT22;6189;52.526;13.390;2023-06-10T11:42:22;26.10;76.50
12254;DHT22;6189;52.526;13.390;2023-06-10T11:45:08;26.40;75.50
12254;DHT22;6189;52.526;13.390;2023-06-10T11:47:56;26.50;72.70
12254;DHT22;6189;52.526;13.390;2023-06-10T11:50:42;26.80;73.00
12254;DHT22;6189;52.526;13.390;2023-06-10T11:53:27;27.00;74.10
12254;DHT22;6189;52.526;13.390;2023-06-10T11:56:14;27.20;74.20
12254;DHT22;6189;52.526;13.390;2023-06-10T11:59:04;27.40;74.40
12254;DHT22;6189;52.526;13.390;2023-06-10T12:01:51;27.60;74.70
12254;DHT22;6189;52.526;13.390;2023-06-10T12:04:36;27.80;75.80
12254;DHT22;6189;52.526;13.390;2023-06-10T12:07:22;28.00;74.60
12254;DHT22;6189;52.526;13.390;2023-06-10T12:10:07;28.20;73.90
12254;DHT22;6189;52.526;13.390;2023-06-10T12:12:54;28.20;72.10
12254;DHT22;6189;52.526;13.390;2023-06-10T12:15:40;28.30;72.60
12254;DHT22;6189;52.526;13.390;2023-06-10T12:18:26;28.40;71.80
12254;DHT22;6189;52.526;13.390;2023-06-10T12:21:18;28.70;71.60
12254;DHT22;6189;52.526;13.390;2023-06-10T12:24:04;28.90;71.10
12254;DHT22;6189;52.526;13.390;2023-06-10T12:26:53;29.10;68.50
12254;DHT22;6189;52.526;13.390;2023-06-10T12:29:50;29.10;67.30
12254;DHT22;6189;52.526;13.390;2023-06-10T12:32:36;29.30;65.90
12254;DHT22;6189;52.526;13.390;2023-06-10T12:35:22;29.40;63.60
12254;DHT22;6189;52.526;13.390;2023-06-10T12:38:09;29.50;63.10
12254;DHT22;6189;52.526;13.390;2023-06-10T12:41:00;29.70;62.30
12254;DHT22;6189;52.526;13.390;2023-06-10T12:43:46;29.80;61.70
12254;DHT22;6189;52.526;13.390;2023-06-10T12:46:36;30.00;61.30
12254;DHT22;6189;52.526;13.390;2023-06-10T12:49:22;30.10;61.80
12254;DHT22;6189;52.526;13.390;2023-06-10T12:52:08;30.30;60.60
12254;DHT22;6189;52.526;13.390;2023-06-10T12:54:53;30.50;61.10
12254;DHT22;6189;52.526;13.390;2023-06-10T12:57:47;30.50;60.70
12254;DHT22;6189;52.526;13.390;2023-06-10T13:00:33;30.60;61.10
12254;DHT22;6189;52.526;13.390;2023-06-10T13:03:20;30.70;62.00
12254;DHT22;6189;52.526;13.390;2023-06-10T13:06:05;30.80;61.80
12254;DHT22;6189;52.526;13.390;2023-06-10T13:08:50;30.80;61.40
12254;DHT22;6189;52.526;13.390;2023-06-10T13:11:36;30.90;61.40
12254;DHT22;6189;52.526;13.390;2023-06-10T13:14:21;30.90;61.70
12254;DHT22;6189;52.526;13.390;2023-06-10T13:17:06;31.00;61.00
12254;DHT22;6189;52.526;13.390;2023-06-10T13:19:53;31.10;61.20
12254;DHT22;6189;52.526;13.390;2023-06-10T13:22:38;31.20;61.30
12254;DHT22;6189;52.526;13.390;2023-06-10T13:25:23;31.20;60.30
12254;DHT22;6189;52.526;13.390;2023-06-10T13:28:08;31.30;59.80
12254;DHT22;6189;52.526;13.390;2023-06-10T13:30:54;31.30;59.70
12254;DHT22;6189;52.526;13.390;2023-06-10T13:33:39;31.40;59.60
12254;DHT22;6189;52.526;13.390;2023-06-10T13:36:25;31.30;59.10
12254;DHT22;6189;52.526;13.390;2023-06-10T13:39:10;31.40;59.10
12254;DHT22;6189;52.526;13.390;2023-06-10T13:41:57;31.40;59.20
12254;DHT22;6189;52.526;13.390;2023-06-10T13:44:42;31.40;58.80
12254;DHT22;6189;52.526;13.390;2023-06-10T13:47:28;31.40;58.50
12254;DHT22;6189;52.526;13.390;2023-06-10T13:50:13;31.30;57.70
12254;DHT22;6189;52.526;13.390;2023-06-10T13:52:59;31.40;58.60
12254;DHT22;6189;52.526;13.390;2023-06-10T13:55:45;31.30;58.80
12254;DHT22;6189;52.526;13.390;2023-06-10T13:58:30;31.30;58.30
12254;DHT22;6189;52.526;13.390;2023-06-10T14:01:15;31.30;58.50
12254;DHT22;6189;52.526;13.390;2023-06-10T14:04:00;31.20;58.40
12254;DHT22;6189;52.526;13.390;2023-06-10T14:06:46;31.20;58.20
12254;DHT22;6189;52.526;13.390;2023-06-10T14:09:33;30.80;58.20
12254;DHT22;6189;52.526;13.390;2023-06-10T14:12:18;30.70;60.00
12254;DHT22;6189;52.526;13.390;2023-06-10T14:15:04;30.70;59.30
12254;DHT22;6189;52.526;13.390;2023-06-10T14:17:50;30.70;59.10
12254;DHT22;6189;52.526;13.390;2023-06-10T14:20:35;30.60;58.30
12254;DHT22;6189;52.526;13.390;2023-06-10T14:23:20;30.60;57.90
12254;DHT22;6189;52.526;13.390;2023-06-10T14:26:06;30.70;57.90
12254;DHT22;6189;52.526;13.390;2023-06-10T14:28:52;30.60;55.30
12254;DHT22;6189;52.526;13.390;2023-06-10T14:31:37;30.60;54.90
12254;DHT22;6189;52.526;13.390;2023-06-10T14:34:22;30.60;54.70
12254;DHT22;6189;52.526;13.390;2023-06-10T14:37:12;30.50;54.00
12254;DHT22;6189;52.526;13.390;2023-06-10T14:39:57;30.20;55.00
12254;DHT22;6189;52.526;13.390;2023-06-10T14:42:44;30.30;54.00
12254;DHT22;6189;52.526;13.390;2023-06-10T14:45:29;30.30;54.60
12254;DHT22;6189;52.526;13.390;2023-06-10T14:48:15;30.40;53.90
12254;DHT22;6189;52.526;13.390;2023-06-10T14:51:00;30.30;53.10
12254;DHT22;6189;52.526;13.390;2023-06-10T14:53:46;30.20;52.50
12254;DHT22;6189;52.526;13.390;2023-06-10T14:56:31;29.90;53.70
12254;DHT22;6189;52.526;13.390;2023-06-10T14:59:18;30.10;53.90
12254;DHT22;6189;52.526;13.390;2023-06-10T15:02:03;30.20;52.90
12254;DHT22;6189;52.526;13.390;2023-06-10T15:04:49;30.30;52.50
12254;DHT22;6189;52.526;13.390;2023-06-10T15:07:34;30.30;53.00
12254;DHT22;6189;52.526;13.390;2023-06-10T15:10:19;30.30;52.40
12254;DHT22;6189;52.526;13.390;2023-06-10T15:13:05;30.30;52.20
12254;DHT22;6189;52.526;13.390;2023-06-10T15:15:52;30.30;52.40
12254;DHT22;6189;52.526;13.390;2023-06-10T15:18:37;30.30;52.70
12254;DHT22;6189;52.526;13.390;2023-06-10T15:21:23;30.20;52.70
12254;DHT22;6189;52.526;13.390;2023-06-10T15:24:08;30.20;52.20
12254;DHT22;6189;52.526;13.390;2023-06-10T15:26:54;30.10;52.00
12254;DHT22;6189;52.526;13.390;2023-06-10T15:29:39;30.10;52.10
12254;DHT22;6189;52.526;13.390;2023-06-10T15:32:25;29.90;51.90
12254;DHT22;6189;52.526;13.390;2023-06-10T15:35:11;29.80;51.80
12254;DHT22;6189;52.526;13.390;2023-06-10T15:37:56;29.80;51.90
12254;DHT22;6189;52.526;13.390;2023-06-10T15:40:41;29.80;51.30
12254;DHT22;6189;52.526;13.390;2023-06-10T15:43:26;29.60;51.00
12254;DHT22;6189;52.526;13.390;2023-06-10T15:46:12;29.80;51.40
12254;DHT22;6189;52.526;13.390;2023-06-10T15:48:59;29.70;49.90
12254;DHT22;6189;52.526;13.390;2023-06-10T15:51:44;29.80;50.70
12254;DHT22;6189;52.526;13.390;2023-06-10T15:54:30;29.80;50.80
12254;DHT22;6189;52.526;13.390;2023-06-10T15:57:15;29.60;50.80
12254;DHT22;6189;52.526;13.390;2023-06-10T16:00:00;29.70;51.20
12254;DHT22;6189;52.526;13.390;2023-06-10T16:02:45;29.80;51.20
12254;DHT22;6189;52.526;13.390;2023-06-10T16:05:32;29.70;51.50
12254;DHT22;6189;52.526;13.390;2023-06-10T16:08:17;29.70;51.60
12254;DHT22;6189;52.526;13.390;2023-06-10T16:11:02;29.70;51.80
12254;DHT22;6189;52.526;13.390;2023-06-10T16:13:48;29.70;52.80
12254;DHT22;6189;52.526;13.390;2023-06-10T16:16:34;29.70;52.20
12254;DHT22;6189;52.526;13.390;2023-06-10T16:19:19;29.70;52.70
12254;DHT22;6189;52.526;13.390;2023-06-10T16:22:05;29.60;52.70
12254;DHT22;6189;52.526;13.390;2023-06-10T16:24:51;29.50;52.20
12254;DHT22;6189;52.526;13.390;2023-06-10T16:27:36;29.40;52.30
12254;DHT22;6189;52.526;13.390;2023-06-10T16:30:21;29.40;52.10
12254;DHT22;6189;52.526;13.390;2023-06-10T16:33:06;29.30;51.80
12254;DHT22;6189;52.526;13.390;2023-06-10T16:35:52;29.30;53.00
12254;DHT22;6189;52.526;13.390;2023-06-10T16:38:38;29.30;52.50
12254;DHT22;6189;52.526;13.390;2023-06-10T16:41:24;29.30;51.20
12254;DHT22;6189;52.526;13.390;2023-06-10T16:44:10;29.30;50.30
12254;DHT22;6189;52.526;13.390;2023-06-10T16:46:55;29.20;49.40
12254;DHT22;6189;52.526;13.390;2023-06-10T16:49:40;29.20;46.30
12254;DHT22;6189;52.526;13.390;2023-06-10T16:52:25;29.10;46.40
12254;DHT22;6189;52.526;13.390;2023-06-10T16:55:12;28.90;45.40
12254;DHT22;6189;52.526;13.390;2023-06-10T16:57:57;29.00;45.70
12254;DHT22;6189;52.526;13.390;2023-06-10T17:00:42;29.00;46.20
12254;DHT22;6189;52.526;13.390;2023-06-10T17:03:29;28.90;45.50
12254;DHT22;6189;52.526;13.390;2023-06-10T17:06:15;28.80;44.90
12254;DHT22;6189;52.526;13.390;2023-06-10T17:09:02;28.70;45.00
12254;DHT22;6189;52.526;13.390;2023-06-10T17:11:49;28.80;45.50
12254;DHT22;6189;52.526;13.390;2023-06-10T17:14:34;28.80;45.40
12254;DHT22;6189;52.526;13.390;2023-06-10T17:17:20;28.90;45.70
12254;DHT22;6189;52.526;13.390;2023-06-10T17:20:05;28.90;45.50
12254;DHT22;6189;52.526;13.390;2023-06-10T17:22:51;28.70;44.50
12254;DHT22;6189;52.526;13.390;2023-06-10T17:25:36;28.80;45.10
12254;DHT22;6189;52.526;13.390;2023-06-10T17:28:22;28.80;44.50
12254;DHT22;6189;52.526;13.390;2023-06-10T17:31:08;28.80;45.20
12254;DHT22;6189;52.526;13.390;2023-06-10T17:33:53;28.70;44.10